createdAt,value
2018-08-09T00:00:25.169Z,3.80
2018-08-09T00:02:56.065Z,3.60
2018-08-09T00:05:26.704Z,3.00
2018-08-09T00:07:57.456Z,3.03
2018-08-09T00:10:28.056Z,3.30
2018-08-09T00:12:58.769Z,3.33
2018-08-09T00:15:29.480Z,3.40
2018-08-09T00:18:00.267Z,3.90
2018-08-09T00:20:30.944Z,3.40
2018-08-09T00:23:01.744Z,3.73
2018-08-09T00:25:32.376Z,3.50
2018-08-09T00:28:03.185Z,3.57
2018-08-09T00:30:33.981Z,3.90
2018-08-09T00:33:05.013Z,3.43
2018-08-09T00:35:35.713Z,3.20
2018-08-09T00:38:06.497Z,3.40
2018-08-09T00:40:37.770Z,3.07
2018-08-09T00:43:08.517Z,3.13
2018-08-09T00:45:39.173Z,3.50
2018-08-09T00:48:10.163Z,3.40
2018-08-09T00:50:40.768Z,2.90
2018-08-09T00:53:11.292Z,3.10
2018-08-09T00:55:41.936Z,3.50
2018-08-09T00:58:12.806Z,3.47
2018-08-09T01:00:43.408Z,3.37
2018-08-09T01:03:14.196Z,3.40
2018-08-09T01:05:44.769Z,3.43
2018-08-09T01:08:15.500Z,3.03
2018-08-09T01:10:46.240Z,3.37
2018-08-09T01:13:17.086Z,3.93
2018-08-09T01:15:47.813Z,3.40
2018-08-09T01:18:18.553Z,3.40
2018-08-09T01:20:49.241Z,3.60
2018-08-09T01:23:20.202Z,3.50
2018-08-09T01:25:50.900Z,3.70
2018-08-09T01:28:21.533Z,3.33
2018-08-09T01:30:52.161Z,3.90
2018-08-09T01:33:22.936Z,3.60
2018-08-09T01:35:53.596Z,3.97
2018-08-09T01:38:24.496Z,3.57
2018-08-09T01:40:55.216Z,4.17
2018-08-09T01:43:42.123Z,4.97
2018-08-09T01:46:12.661Z,5.60
2018-08-09T01:48:43.480Z,5.53
2018-08-09T01:51:14.045Z,5.77
2018-08-09T01:53:44.742Z,6.23
2018-08-09T01:56:15.307Z,4.87
2018-08-09T01:58:46.185Z,4.77
2018-08-09T02:01:16.834Z,4.57
2018-08-09T02:03:47.520Z,4.70
2018-08-09T02:06:18.951Z,4.90
2018-08-09T02:08:50.115Z,5.53
2018-08-09T02:11:20.841Z,4.90
2018-08-09T02:13:51.673Z,5.03
2018-08-09T02:16:22.357Z,4.67
2018-08-09T02:18:53.509Z,5.03
2018-08-09T02:21:23.877Z,4.90
2018-08-09T02:23:54.699Z,4.73
2018-08-09T02:26:25.457Z,5.60
2018-08-09T02:28:56.132Z,4.77
2018-08-09T02:31:26.719Z,5.20
2018-08-09T02:33:57.516Z,5.37
2018-08-09T02:36:28.172Z,5.40
2018-08-09T02:38:59.100Z,5.97
2018-08-09T02:41:29.645Z,5.37
2018-08-09T02:44:00.682Z,5.60
2018-08-09T02:46:31.505Z,5.27
2018-08-09T02:49:02.103Z,6.63
2018-08-09T02:51:32.740Z,5.40
2018-08-09T02:54:03.492Z,5.90
2018-08-09T02:56:34.097Z,6.50
2018-08-09T02:59:04.797Z,7.47
2018-08-09T03:01:35.472Z,7.80
2018-08-09T03:04:06.025Z,8.80
2018-08-09T03:06:36.787Z,8.03
2018-08-09T03:09:12.613Z,8.50
2018-08-09T03:11:44.067Z,7.83
2018-08-09T03:14:14.917Z,6.73
2018-08-09T03:16:45.676Z,7.23
2018-08-09T03:19:16.769Z,7.00
2018-08-09T03:21:47.404Z,7.13
2018-08-09T03:24:18.242Z,7.27
2018-08-09T03:26:48.852Z,7.00
2018-08-09T03:29:19.673Z,7.53
2018-08-09T03:31:50.325Z,8.20
2018-08-09T03:34:21.140Z,7.30
2018-08-09T03:36:51.776Z,7.70
2018-08-09T03:39:22.529Z,8.50
2018-08-09T03:41:53.048Z,7.77
2018-08-09T03:44:23.937Z,7.07
2018-08-09T03:46:54.752Z,7.80
2018-08-09T03:49:26.009Z,7.50
2018-08-09T03:51:56.609Z,7.57
2018-08-09T03:54:27.301Z,7.30
2018-08-09T03:56:57.884Z,7.53
2018-08-09T03:59:28.677Z,7.60
2018-08-09T04:01:59.361Z,7.27
2018-08-09T04:04:30.237Z,6.90
2018-08-09T04:07:00.852Z,6.50
2018-08-09T04:09:32.079Z,7.70
2018-08-09T04:12:02.828Z,6.90
2018-08-09T04:14:33.638Z,8.73
2018-08-09T04:17:08.376Z,11.77
2018-08-09T04:19:39.281Z,7.47
2018-08-09T04:22:09.796Z,9.03
2018-08-09T04:24:41.090Z,16.50
2018-08-09T04:27:11.668Z,9.27
2018-08-09T04:29:42.326Z,9.30
2018-08-09T04:32:12.982Z,7.73
2018-08-09T04:34:43.752Z,6.13
2018-08-09T04:37:14.422Z,6.13
2018-08-09T04:39:45.055Z,6.47
2018-08-09T04:42:15.685Z,6.93
2018-08-09T04:44:46.365Z,6.57
2018-08-09T04:47:16.998Z,6.57
2018-08-09T04:49:47.925Z,6.37
2018-08-09T04:52:18.628Z,7.20
2018-08-09T04:54:49.257Z,6.30
2018-08-09T04:57:20.046Z,5.80
2018-08-09T04:59:50.904Z,6.53
2018-08-09T05:02:21.513Z,5.83
2018-08-09T05:04:52.500Z,6.00
2018-08-09T05:07:23.169Z,5.87
2018-08-09T05:09:53.964Z,6.10
2018-08-09T05:12:24.640Z,5.63
2018-08-09T05:14:55.552Z,5.73
2018-08-09T05:17:26.017Z,5.50
2018-08-09T05:19:56.796Z,6.23
2018-08-09T05:22:27.413Z,6.10
2018-08-09T05:24:58.110Z,5.10
2018-08-09T05:27:28.965Z,5.07
2018-08-09T05:29:59.712Z,4.97
2018-08-09T05:32:30.785Z,5.10
2018-08-09T05:35:01.453Z,7.27
2018-08-09T05:37:32.081Z,5.87
2018-08-09T05:40:02.771Z,5.97
2018-08-09T05:42:33.398Z,6.20
2018-08-09T05:45:04.153Z,6.70
2018-08-09T05:47:34.810Z,7.27
2018-08-09T05:50:06.201Z,5.97
2018-08-09T05:52:36.889Z,5.37
2018-08-09T05:55:07.857Z,6.73
2018-08-09T05:57:38.385Z,5.70
2018-08-09T06:00:09.592Z,5.20
2018-08-09T06:02:40.388Z,6.30
2018-08-09T06:05:11.128Z,5.87
2018-08-09T06:07:41.865Z,6.17
2018-08-09T06:10:12.637Z,6.50
2018-08-09T06:12:43.485Z,6.80
2018-08-09T06:15:14.358Z,6.10
2018-08-09T06:17:45.006Z,6.53
2018-08-09T06:20:15.709Z,6.07
2018-08-09T06:22:46.320Z,4.90
2018-08-09T06:25:17.226Z,5.00
2018-08-09T06:27:47.769Z,4.83
2018-08-09T06:30:18.654Z,5.07
2018-08-09T06:32:49.313Z,5.00
2018-08-09T06:35:20.114Z,4.90
2018-08-09T06:37:50.867Z,5.30
2018-08-09T06:40:21.480Z,5.50
2018-08-09T06:42:52.230Z,5.97
2018-08-09T06:45:22.959Z,5.77
2018-08-09T06:47:53.803Z,6.33
2018-08-09T06:50:24.693Z,5.55
2018-08-09T06:52:55.427Z,5.07
2018-08-09T06:55:25.980Z,5.28
2018-08-09T06:57:56.601Z,5.47
2018-08-09T07:00:27.344Z,5.53
2018-08-09T07:02:58.097Z,5.17
2018-08-09T07:05:28.866Z,5.30
2018-08-09T07:07:59.560Z,5.53
2018-08-09T07:10:30.415Z,5.55
2018-08-09T07:13:01.190Z,5.28
2018-08-09T07:15:32.000Z,5.58
2018-08-09T07:18:02.672Z,6.45
2018-08-09T07:20:34.397Z,6.00
2018-08-09T07:23:04.960Z,6.95
2018-08-09T07:25:35.551Z,6.40
2018-08-09T07:28:07.152Z,6.33
2018-08-09T07:30:37.910Z,6.58
2018-08-09T07:33:08.589Z,5.97
2018-08-09T07:35:39.384Z,5.95
2018-08-09T07:38:10.158Z,5.67
2018-08-09T07:40:41.252Z,7.17
2018-08-09T07:43:11.987Z,6.85
2018-08-09T07:45:42.678Z,6.00
2018-08-09T07:48:13.296Z,6.25
2018-08-09T07:50:44.109Z,5.97
2018-08-09T07:53:14.776Z,5.53
2018-08-09T07:55:45.674Z,5.15
2018-08-09T07:58:16.393Z,5.28
2018-08-09T08:00:47.175Z,4.90
2018-08-09T08:03:17.801Z,5.05
2018-08-09T08:05:48.716Z,3.50
2018-08-09T08:08:19.460Z,3.47
2018-08-09T08:10:50.344Z,6.17
2018-08-09T08:13:21.421Z,2.33
2018-08-09T08:15:52.217Z,2.10
2018-08-09T08:18:22.882Z,1.80
2018-08-09T08:20:53.637Z,2.47
2018-08-09T08:23:24.321Z,2.50
2018-08-09T08:25:55.174Z,11.08
2018-08-09T08:28:25.896Z,1.85
2018-08-09T08:30:56.569Z,2.37
2018-08-09T08:33:27.226Z,2.15
2018-08-09T08:35:58.081Z,2.10
2018-08-09T08:38:28.735Z,1.60
2018-08-09T08:40:59.381Z,1.85
2018-08-09T08:43:30.033Z,1.98
2018-08-09T08:46:01.074Z,2.40
2018-08-09T08:48:31.740Z,2.50
2018-08-09T08:51:02.601Z,2.52
2018-08-09T08:53:33.242Z,2.12
2018-08-09T08:56:04.383Z,1.87
2018-08-09T08:58:35.140Z,2.50
2018-08-09T09:01:05.712Z,2.37
2018-08-09T09:03:36.340Z,2.75
2018-08-09T09:06:07.307Z,2.65
2018-08-09T09:08:38.090Z,2.98
2018-08-09T09:11:08.909Z,2.62
2018-08-09T09:13:39.518Z,2.85
2018-08-09T09:16:10.160Z,2.58
2018-08-09T09:18:40.832Z,3.10
2018-08-09T09:21:11.516Z,3.00
2018-08-09T09:23:42.253Z,2.95
2018-08-09T09:26:13.117Z,3.33
2018-08-09T09:28:43.760Z,3.40
2018-08-09T09:31:14.521Z,3.12
2018-08-09T09:33:45.148Z,3.00
2018-08-09T09:36:15.894Z,3.25
2018-08-09T09:38:46.476Z,3.12
2018-08-09T09:41:17.201Z,4.62
2018-08-09T09:43:47.749Z,3.47
2018-08-09T09:46:18.580Z,3.45
2018-08-09T09:48:49.237Z,2.95
2018-08-09T09:51:20.130Z,3.20
2018-08-09T09:53:50.893Z,2.80
2018-08-09T09:56:21.625Z,2.98
2018-08-09T09:58:52.252Z,3.00
2018-08-09T10:01:27.881Z,4.40
2018-08-09T10:03:58.450Z,2.40
2018-08-09T10:06:29.530Z,3.65
2018-08-09T10:09:00.241Z,4.65
2018-08-09T10:11:31.479Z,2.98
2018-08-09T10:14:02.397Z,2.15
2018-08-09T10:16:34.022Z,3.45
2018-08-09T10:19:04.797Z,1.75
2018-08-09T10:21:35.502Z,1.77
2018-08-09T10:24:06.213Z,1.95
2018-08-09T10:26:37.341Z,1.98
2018-08-09T10:29:07.925Z,3.52
2018-08-09T10:31:38.563Z,1.98
2018-08-09T10:34:09.237Z,2.60
2018-08-09T10:36:40.233Z,1.67
2018-08-09T10:39:12.486Z,1.90
2018-08-09T10:41:43.469Z,1.57
2018-08-09T10:44:14.277Z,1.60
2018-08-09T10:46:45.896Z,1.92
2018-08-09T10:49:16.548Z,2.00
2018-08-09T10:51:47.197Z,1.70
2018-08-09T10:54:17.950Z,1.72
2018-08-09T10:56:48.932Z,1.67
2018-08-09T10:59:19.460Z,1.50
2018-08-09T11:01:50.165Z,1.40
2018-08-09T11:04:20.789Z,1.70
2018-08-09T11:06:51.475Z,1.42
2018-08-09T11:09:22.145Z,1.42
2018-08-09T11:11:52.867Z,2.42
2018-08-09T11:14:23.548Z,1.50
2018-08-09T11:16:54.457Z,3.00
2018-08-09T11:19:25.160Z,1.25
2018-08-09T11:21:56.488Z,1.40
2018-08-09T11:24:27.021Z,1.35
2018-08-09T11:26:57.800Z,1.20
2018-08-09T11:29:28.522Z,1.05
2018-08-09T11:31:59.600Z,1.47
2018-08-09T11:34:30.373Z,1.30
2018-08-09T11:37:01.249Z,3.98
2018-08-09T11:39:31.969Z,2.10
2018-08-09T11:42:02.722Z,4.28
2018-08-09T11:44:33.277Z,1.65
2018-08-09T11:47:04.490Z,2.58
2018-08-09T11:49:35.093Z,9.10
2018-08-09T11:52:05.849Z,1.60
2018-08-09T11:54:36.566Z,3.58
2018-08-09T11:57:07.453Z,1.47
2018-08-09T11:59:38.224Z,2.37
2018-08-09T12:02:08.885Z,1.65
2018-08-09T12:04:39.599Z,1.60
2018-08-09T12:07:10.857Z,2.62
2018-08-09T12:09:41.446Z,1.75
2018-08-09T12:12:12.279Z,1.40
2018-08-09T12:14:43.160Z,1.62
2018-08-09T12:17:14.029Z,1.90
2018-08-09T12:19:44.834Z,1.62
2018-08-09T12:22:15.568Z,5.95
2018-08-09T12:24:46.405Z,1.70
2018-08-09T12:27:17.323Z,1.60
2018-08-09T12:29:48.152Z,1.80
2018-08-09T12:32:18.912Z,1.77
2018-08-09T12:34:49.725Z,1.40
2018-08-09T12:37:20.633Z,1.47
2018-08-09T12:39:51.293Z,2.10
2018-08-09T12:42:22.305Z,1.57
2018-08-09T12:44:53.333Z,2.00
2018-08-09T12:47:24.128Z,1.77
2018-08-09T12:49:54.774Z,1.60
2018-08-09T12:52:25.512Z,1.70
2018-08-09T12:54:56.368Z,2.42
2018-08-09T12:57:27.441Z,1.25
2018-08-09T12:59:58.159Z,1.90
2018-08-09T13:02:28.816Z,1.50
2018-08-09T13:04:59.514Z,1.72
2018-08-09T13:07:30.232Z,1.42
2018-08-09T13:10:01.247Z,2.42
2018-08-09T13:12:32.247Z,1.70
2018-08-09T13:15:03.033Z,1.40
2018-08-09T13:17:33.819Z,1.52
2018-08-09T13:20:04.620Z,1.70
2018-08-09T13:22:36.085Z,1.05
2018-08-09T13:25:07.568Z,2.27
2018-08-09T13:27:38.401Z,1.95
2018-08-09T13:30:13.387Z,1.60
2018-08-09T13:32:45.160Z,0.95
2018-08-09T13:35:15.868Z,1.35
2018-08-09T13:37:46.587Z,1.37
2018-08-09T13:40:17.337Z,1.57
2018-08-09T13:42:48.490Z,1.62
2018-08-09T13:45:18.860Z,1.70
2018-08-09T13:47:49.697Z,1.52
2018-08-09T13:50:20.463Z,2.08
2018-08-09T13:52:51.566Z,1.37
2018-08-09T13:55:22.207Z,1.32
2018-08-09T13:57:52.625Z,1.52
2018-08-09T14:00:23.119Z,1.30
2018-08-09T14:02:53.776Z,1.50
2018-08-09T14:05:24.252Z,2.30
2018-08-09T14:07:54.993Z,1.37
2018-08-09T14:10:25.324Z,1.50
2018-08-09T14:12:55.900Z,1.77
2018-08-09T14:15:26.241Z,1.40
2018-08-09T14:17:57.958Z,1.57
2018-08-09T14:20:29.079Z,2.60
2018-08-09T14:23:00.644Z,2.67
2018-08-09T14:25:31.882Z,3.92
2018-08-09T14:28:03.227Z,7.00
2018-08-09T14:30:34.710Z,2.40
2018-08-09T14:33:06.126Z,1.55
2018-08-09T14:35:37.778Z,2.47
2018-08-09T14:38:09.122Z,4.87
2018-08-09T14:40:40.284Z,3.00
2018-08-09T14:43:11.723Z,2.37
2018-08-09T14:45:43.179Z,2.47
2018-08-09T14:48:14.199Z,1.98
2018-08-09T14:50:45.079Z,1.62
2018-08-09T14:53:16.180Z,2.22
2018-08-09T14:55:47.658Z,1.30
2018-08-09T14:58:19.310Z,2.17
2018-08-09T15:00:50.336Z,1.60
2018-08-09T15:03:21.362Z,1.27
2018-08-09T15:05:52.418Z,1.90
2018-08-09T15:08:23.973Z,1.55
2018-08-09T15:10:55.040Z,1.17
2018-08-09T15:13:26.580Z,1.27
2018-08-09T15:15:57.615Z,1.50
2018-08-09T15:18:29.182Z,1.70
2018-08-09T15:21:00.333Z,2.47
2018-08-09T15:23:31.789Z,3.12
2018-08-09T15:26:02.814Z,2.25
2018-08-09T15:28:33.751Z,1.90
2018-08-09T15:31:04.590Z,2.77
2018-08-09T15:33:35.542Z,2.37
2018-08-09T15:36:07.182Z,2.47
2018-08-09T15:38:38.791Z,1.72
2018-08-09T15:41:09.897Z,1.67
2018-08-09T15:43:40.962Z,2.53
2018-08-09T15:46:11.904Z,1.80
2018-08-09T15:49:45.367Z,1.90
2018-08-09T15:52:15.928Z,1.73
2018-08-09T15:54:46.982Z,1.60
2018-08-09T15:57:17.666Z,2.00
2018-08-09T15:59:48.664Z,2.53
2018-08-09T16:02:19.389Z,2.17
2018-08-09T16:04:50.201Z,2.00
2018-08-09T16:07:20.829Z,1.80
2018-08-09T16:09:51.505Z,1.70
2018-08-09T16:12:21.973Z,1.60
2018-08-09T16:14:52.676Z,1.57
2018-08-09T16:17:23.057Z,1.62
2018-08-09T16:19:53.400Z,1.65
2018-08-09T16:22:24.325Z,1.47
2018-08-09T16:24:54.926Z,1.70
2018-08-09T16:27:25.360Z,1.60
2018-08-09T16:29:55.762Z,1.60
2018-08-09T16:32:26.617Z,1.82
2018-08-09T16:34:56.924Z,1.47
2018-08-09T16:37:27.394Z,1.85
2018-08-09T16:39:57.686Z,1.80
2018-08-09T16:42:28.397Z,1.60
2018-08-09T16:44:58.842Z,1.43
2018-08-09T16:47:29.249Z,1.73
2018-08-09T16:49:59.640Z,1.80
2018-08-09T16:52:30.200Z,1.87
2018-08-09T16:55:00.635Z,1.63
2018-08-09T16:57:31.201Z,1.40
2018-08-09T17:00:01.533Z,1.93
2018-08-09T17:02:32.004Z,1.70
2018-08-09T17:05:02.509Z,1.83
2018-08-09T17:07:33.149Z,1.83
2018-08-09T17:10:04.007Z,1.83
2018-08-09T17:12:34.841Z,1.37
2018-08-09T17:15:08.614Z,1.67
2018-08-09T17:17:39.376Z,1.43
2018-08-09T17:20:17.007Z,1.90
2018-08-09T17:22:47.664Z,1.77
2018-08-09T17:25:18.347Z,1.70
2018-08-09T17:27:50.132Z,1.50
2018-08-09T17:30:23.092Z,1.80
2018-08-09T17:32:53.644Z,1.60
2018-08-09T17:35:24.045Z,1.60
2018-08-09T17:37:55.766Z,3.90
2018-08-09T17:40:30.474Z,2.20
2018-08-09T17:43:02.269Z,2.63
2018-08-09T17:45:35.001Z,2.00
2018-08-09T17:48:06.900Z,2.80
2018-08-09T17:50:37.251Z,1.63
2018-08-09T17:53:09.993Z,1.73
2018-08-09T17:55:40.466Z,2.07
2018-08-09T17:58:11.056Z,2.20
2018-08-09T18:00:41.805Z,2.27
2018-08-09T18:03:13.344Z,1.60
2018-08-09T18:05:43.649Z,2.10
2018-08-09T18:08:14.284Z,1.83
2018-08-09T18:10:44.989Z,1.63
2018-08-09T18:13:15.735Z,1.80
2018-08-09T18:15:46.340Z,1.77
2018-08-09T18:18:17.032Z,2.10
2018-08-09T18:20:47.373Z,1.67
2018-08-09T18:23:18.156Z,1.70
2018-08-09T18:25:48.900Z,1.87
2018-08-09T18:28:19.835Z,1.63
2018-08-09T18:30:50.526Z,1.70
2018-08-09T18:33:21.361Z,1.57
2018-08-09T18:35:51.898Z,1.57
2018-08-09T18:38:22.766Z,1.63
2018-08-09T18:40:53.513Z,1.57
2018-08-09T18:43:24.377Z,1.80
2018-08-09T18:45:54.858Z,1.53
2018-08-09T18:48:25.754Z,1.77
2018-08-09T18:50:56.304Z,1.60
2018-08-09T18:53:26.942Z,1.93
2018-08-09T18:55:57.676Z,4.27
2018-08-09T18:58:28.601Z,3.13
2018-08-09T19:00:59.325Z,3.40
2018-08-09T19:03:29.982Z,3.03
2018-08-09T19:06:01.269Z,5.20
2018-08-09T19:08:32.340Z,3.67
2018-08-09T19:11:02.891Z,1.80
2018-08-09T19:13:33.666Z,1.97
2018-08-09T19:16:04.300Z,1.57
2018-08-09T19:18:36.009Z,2.03
2018-08-09T19:21:06.301Z,2.00
2018-08-09T19:23:37.329Z,1.63
2018-08-09T19:26:07.661Z,1.57
2018-08-09T19:28:38.073Z,1.67
2018-08-09T19:31:11.515Z,2.00
2018-08-09T19:33:42.176Z,1.60
2018-08-09T19:36:12.573Z,1.70
2018-08-09T19:38:43.223Z,1.60
2018-08-09T19:41:14.141Z,1.77
2018-08-09T19:43:44.769Z,1.73
2018-08-09T19:46:15.786Z,1.80
2018-08-09T19:48:46.650Z,2.67
2018-08-09T19:51:17.349Z,1.70
2018-08-09T19:53:47.864Z,2.40
2018-08-09T19:56:18.831Z,2.20
2018-08-09T19:58:49.506Z,2.60
2018-08-09T20:01:20.303Z,2.10
2018-08-09T20:03:50.941Z,2.00
2018-08-09T20:06:23.555Z,1.90
2018-08-09T20:08:53.895Z,2.27
2018-08-09T20:11:24.258Z,2.10
2018-08-09T20:13:54.626Z,2.20
2018-08-09T20:16:24.977Z,2.40
2018-08-09T20:18:55.411Z,1.77
2018-08-09T20:21:25.737Z,1.60
2018-08-09T20:23:56.114Z,2.00
2018-08-09T20:26:26.711Z,1.80
2018-08-09T20:28:57.041Z,2.07
2018-08-09T20:31:27.454Z,1.80
2018-08-09T20:33:57.920Z,1.87
2018-08-09T20:36:28.460Z,1.80
2018-08-09T20:38:58.970Z,1.60
2018-08-09T20:41:30.443Z,1.80
2018-08-09T20:44:01.024Z,1.50
2018-08-09T20:46:31.794Z,1.53
2018-08-09T20:49:02.446Z,1.33
2018-08-09T20:51:33.221Z,1.60
2018-08-09T20:54:03.890Z,2.13
2018-08-09T20:56:34.528Z,1.53
2018-08-09T20:59:05.136Z,1.50
2018-08-09T21:01:35.820Z,2.03
2018-08-09T21:04:07.209Z,1.80
2018-08-09T21:06:37.961Z,1.47
2018-08-09T21:09:11.152Z,2.27
2018-08-09T21:11:42.780Z,1.93
2018-08-09T21:14:13.449Z,2.87
2018-08-09T21:16:44.100Z,2.23
2018-08-09T21:19:14.709Z,2.10
2018-08-09T21:21:45.308Z,2.03
2018-08-09T21:24:16.034Z,2.13
2018-08-09T21:26:47.266Z,1.93
2018-08-09T21:29:17.912Z,2.00
2018-08-09T21:31:48.786Z,1.83
2018-08-09T21:34:19.368Z,2.00
2018-08-09T21:36:50.253Z,2.10
2018-08-09T21:39:20.852Z,1.93
2018-08-09T21:41:51.423Z,2.33
2018-08-09T21:44:22.154Z,2.37
2018-08-09T21:46:53.023Z,1.80
2018-08-09T21:49:23.653Z,2.10
2018-08-09T21:51:54.544Z,2.20
2018-08-09T21:54:25.150Z,2.20
2018-08-09T21:56:55.926Z,1.93
2018-08-09T21:59:26.598Z,1.80
2018-08-09T22:01:57.305Z,1.80
2018-08-09T22:04:27.973Z,1.70
2018-08-09T22:07:03.652Z,1.80
2018-08-09T22:09:39.432Z,2.03
2018-08-09T22:12:14.942Z,2.10
2018-08-09T22:14:50.742Z,1.87
2018-08-09T22:19:29.872Z,1.90
2018-08-09T22:22:09.606Z,2.00
2018-08-09T22:24:40.684Z,2.00
2018-08-09T22:27:11.869Z,1.87
2018-08-09T22:29:42.564Z,2.00
2018-08-09T22:32:13.569Z,1.90
2018-08-09T22:34:44.302Z,1.90
2018-08-09T22:37:15.020Z,2.30
2018-08-09T22:39:45.621Z,2.03
2018-08-09T22:42:15.956Z,2.00
2018-08-09T22:44:46.553Z,2.23
2018-08-09T22:47:16.817Z,1.80
2018-08-09T22:49:47.509Z,2.40
2018-08-09T22:52:17.795Z,1.80
2018-08-09T22:54:48.153Z,1.83
2018-08-09T22:57:18.392Z,2.10
2018-08-09T22:59:49.060Z,2.00
2018-08-09T23:02:19.512Z,1.77
2018-08-09T23:04:49.937Z,1.90
2018-08-09T23:07:20.353Z,2.50
2018-08-09T23:09:50.700Z,1.93
2018-08-09T23:12:21.037Z,2.07
2018-08-09T23:14:51.344Z,1.80
2018-08-09T23:17:21.584Z,2.03
2018-08-09T23:19:52.049Z,2.10
2018-08-09T23:23:03.852Z,2.10
2018-08-09T23:25:34.600Z,1.93
2018-08-09T23:28:05.330Z,2.20
2018-08-09T23:30:36.034Z,2.20
2018-08-09T23:33:06.424Z,1.80
2018-08-09T23:35:36.716Z,2.03
2018-08-09T23:38:07.601Z,2.03
2018-08-09T23:40:38.189Z,1.87
2018-08-09T23:43:09.124Z,1.87
2018-08-09T23:45:39.388Z,1.70
2018-08-09T23:48:10.069Z,1.90
2018-08-09T23:50:40.661Z,2.13
2018-08-09T23:53:11.369Z,2.10
2018-08-09T23:55:41.944Z,2.30
2018-08-09T23:58:12.832Z,1.90
